createdAt,value
2018-11-02T00:00:41.296Z,9.60
2018-11-02T00:05:37.063Z,9.60
2018-11-02T00:10:32.305Z,9.60
2018-11-02T00:20:22.259Z,9.60
2018-11-02T00:22:49.829Z,9.50
2018-11-02T00:25:17.686Z,9.50
2018-11-02T00:37:35.867Z,9.60
2018-11-02T00:40:03.828Z,9.50
2018-11-02T00:42:31.419Z,9.60
2018-11-02T00:47:26.283Z,9.70
2018-11-02T00:49:53.796Z,9.70
2018-11-02T00:54:49.032Z,9.60
2018-11-02T00:59:43.956Z,9.60
2018-11-02T01:02:11.391Z,9.60
2018-11-02T01:04:39.005Z,9.50
2018-11-02T01:07:06.812Z,9.60
2018-11-02T01:09:34.519Z,9.60
2018-11-02T01:12:02.160Z,9.60
2018-11-02T01:14:29.744Z,9.60
2018-11-02T01:16:57.185Z,9.60
2018-11-02T01:19:29.303Z,9.60
2018-11-02T01:21:57.110Z,9.60
2018-11-02T01:24:24.573Z,9.60
2018-11-02T01:26:52.126Z,9.60
2018-11-02T01:29:19.656Z,9.60
2018-11-02T01:31:47.273Z,9.50
2018-11-02T01:34:14.809Z,9.50
2018-11-02T01:36:42.373Z,9.50
2018-11-02T01:39:09.873Z,9.50
2018-11-02T01:41:37.573Z,9.50
2018-11-02T01:46:32.763Z,9.50
2018-11-02T01:49:00.360Z,9.60
2018-11-02T01:51:27.894Z,9.60
2018-11-02T01:53:55.498Z,9.60
2018-11-02T01:58:50.373Z,9.60
2018-11-02T02:01:17.969Z,9.60
2018-11-02T02:03:45.484Z,9.70
2018-11-02T02:06:12.946Z,9.60
2018-11-02T02:08:40.487Z,9.60
2018-11-02T02:11:07.989Z,9.60
2018-11-02T02:13:35.584Z,9.60
2018-11-02T02:16:03.157Z,9.60
2018-11-02T02:18:30.944Z,9.60
2018-11-02T02:20:58.417Z,9.70
2018-11-02T02:23:26.024Z,9.70
2018-11-02T02:25:53.516Z,9.70
2018-11-02T02:28:21.109Z,9.70
2018-11-02T02:30:48.582Z,9.70
2018-11-02T02:35:43.650Z,9.60
2018-11-02T02:38:11.146Z,9.60
2018-11-02T02:40:38.717Z,9.60
2018-11-02T02:50:28.640Z,9.90
2018-11-02T02:55:23.716Z,9.80
2018-11-02T02:59:15.753Z,9.80
2018-11-02T03:01:43.365Z,9.70
2018-11-02T03:04:10.970Z,9.60
2018-11-02T03:06:38.606Z,9.60
2018-11-02T03:11:34.035Z,9.60
2018-11-02T03:14:01.527Z,9.40
2018-11-02T03:38:35.836Z,9.20
2018-11-02T03:41:03.393Z,9.20
2018-11-02T03:48:25.865Z,9.30
2018-11-02T03:50:53.393Z,9.20
2018-11-02T03:53:20.919Z,9.30
2018-11-02T03:55:49.229Z,9.20
2018-11-02T04:00:45.987Z,9.10
2018-11-02T04:03:13.647Z,9.00
2018-11-02T04:05:41.160Z,8.80
2018-11-02T04:08:08.684Z,8.90
2018-11-02T04:10:36.215Z,8.90
2018-11-02T04:13:03.830Z,8.90
2018-11-02T04:15:31.362Z,8.90
2018-11-02T04:17:59.003Z,8.90
2018-11-02T04:20:26.533Z,9.00
2018-11-02T04:22:53.976Z,8.90
2018-11-02T04:25:21.596Z,8.90
2018-11-02T04:27:49.225Z,8.90
2018-11-02T04:30:16.816Z,9.00
2018-11-02T04:35:11.900Z,9.00
2018-11-02T04:37:39.477Z,9.00
2018-11-02T04:40:07.276Z,9.00
2018-11-02T04:42:34.817Z,9.10
2018-11-02T04:45:02.444Z,9.20
2018-11-02T04:47:29.891Z,9.20
2018-11-02T04:49:57.402Z,9.20
2018-11-02T04:52:25.224Z,9.20
2018-11-02T04:54:52.757Z,9.20
2018-11-02T04:57:20.242Z,9.30
2018-11-02T04:59:47.831Z,9.30
2018-11-02T05:02:15.412Z,9.30
2018-11-02T05:04:42.888Z,9.20
2018-11-02T05:09:37.933Z,9.30
2018-11-02T05:12:05.634Z,9.30
2018-11-02T05:14:33.148Z,9.20
2018-11-02T05:17:01.068Z,9.30
2018-11-02T05:19:28.548Z,9.30
2018-11-02T05:24:23.524Z,9.30
2018-11-02T05:26:51.028Z,9.30
2018-11-02T05:39:10.093Z,9.30
2018-11-02T05:41:37.664Z,9.30
2018-11-02T05:44:05.449Z,9.30
2018-11-02T05:46:32.963Z,9.20
2018-11-02T05:51:27.904Z,9.10
2018-11-02T06:13:35.462Z,9.10
2018-11-02T06:16:02.917Z,9.10
2018-11-02T06:18:30.465Z,9.10
2018-11-02T06:23:25.498Z,9.00
2018-11-02T06:25:52.976Z,9.00
2018-11-02T06:28:20.449Z,9.10
2018-11-02T06:30:48.131Z,8.90
2018-11-02T06:33:15.518Z,8.90
2018-11-02T06:35:43.081Z,9.00
2018-11-02T06:38:13.423Z,8.90
2018-11-02T06:40:41.244Z,8.90
2018-11-02T06:48:04.561Z,9.10
2018-11-02T06:53:00.996Z,9.10
2018-11-02T06:55:28.683Z,9.10
2018-11-02T06:57:56.124Z,9.00
2018-11-02T07:00:24.636Z,9.00
2018-11-02T07:02:52.116Z,8.90
2018-11-02T07:05:22.568Z,9.10
2018-11-02T07:07:50.223Z,9.10
2018-11-02T07:10:17.575Z,9.10
2018-11-02T07:12:45.000Z,9.00
2018-11-02T07:15:12.581Z,9.10
2018-11-02T07:17:40.094Z,9.10
2018-11-02T07:20:07.695Z,9.10
2018-11-02T07:22:35.156Z,9.10
2018-11-02T07:25:02.796Z,9.10
2018-11-02T07:27:30.472Z,9.10
2018-11-02T07:29:57.940Z,9.20
2018-11-02T07:32:25.411Z,9.10
2018-11-02T07:34:52.931Z,9.20
2018-11-02T07:37:20.609Z,9.20
2018-11-02T07:42:15.935Z,9.30
2018-11-02T07:44:46.605Z,9.30
2018-11-02T07:47:14.219Z,9.30
2018-11-02T07:49:42.299Z,9.30
2018-11-02T07:52:09.596Z,9.40
2018-11-02T07:57:04.676Z,9.50
2018-11-02T07:59:32.272Z,9.50
2018-11-02T08:01:59.761Z,9.60
2018-11-02T08:04:27.149Z,9.60
2018-11-02T08:06:54.586Z,9.70
2018-11-02T08:09:22.145Z,9.90
2018-11-02T08:11:49.745Z,9.90
2018-11-02T08:14:17.205Z,10.00
2018-11-02T08:16:44.576Z,10.00
2018-11-02T08:24:06.837Z,10.40
2018-11-02T08:26:34.394Z,10.50
2018-11-02T08:29:01.951Z,10.60
2018-11-02T08:33:56.822Z,10.90
2018-11-02T08:36:24.285Z,11.20
2018-11-02T08:38:51.744Z,11.40
2018-11-02T08:41:19.265Z,11.50
2018-11-02T08:43:46.684Z,11.60
2018-11-02T08:46:14.128Z,11.90
2018-11-02T08:48:41.713Z,12.20
2018-11-02T08:51:09.277Z,12.50
2018-11-02T08:53:36.789Z,12.60
2018-11-02T08:56:04.424Z,13.10
2018-11-02T08:58:31.968Z,13.40
2018-11-02T09:00:59.276Z,13.90
2018-11-02T09:03:26.788Z,14.00
2018-11-02T09:05:54.305Z,13.60
2018-11-02T09:08:21.715Z,13.20
2018-11-02T09:13:16.680Z,12.70
2018-11-02T09:18:11.599Z,13.50
2018-11-02T09:25:34.036Z,14.40
2018-11-02T09:28:01.970Z,14.50
2018-11-02T09:30:29.345Z,14.30
2018-11-02T09:32:56.795Z,14.20
2018-11-02T09:35:24.245Z,14.10
2018-11-02T09:37:51.826Z,14.20
2018-11-02T09:40:19.387Z,14.70
2018-11-02T09:42:46.965Z,15.30
2018-11-02T09:45:14.640Z,16.00
2018-11-02T09:47:42.829Z,16.60
2018-11-02T09:50:10.900Z,16.80
2018-11-02T09:52:38.755Z,17.10
2018-11-02T10:00:01.741Z,16.60
2018-11-02T10:09:52.456Z,17.10
2018-11-02T10:12:20.004Z,17.30
2018-11-02T10:14:47.506Z,18.10
2018-11-02T10:17:15.047Z,18.80
2018-11-02T10:19:42.592Z,18.10
2018-11-02T10:36:55.493Z,20.70
2018-11-02T10:49:15.911Z,23.30
2018-11-02T10:51:43.425Z,24.70
2018-11-02T11:01:38.919Z,25.50
2018-11-02T11:06:34.585Z,25.70
2018-11-02T11:16:24.723Z,26.70
2018-11-02T11:18:52.253Z,27.20
2018-11-02T11:26:15.043Z,25.40
2018-11-02T11:28:42.537Z,26.40
2018-11-02T11:31:10.073Z,27.00
2018-11-02T12:03:08.533Z,22.60
2018-11-02T12:05:36.111Z,21.80
2018-11-02T12:08:03.753Z,20.80
2018-11-02T12:10:31.490Z,19.50
2018-11-02T12:12:58.951Z,18.50
2018-11-02T12:15:26.639Z,18.10
2018-11-02T12:17:54.369Z,17.40
2018-11-02T12:20:24.333Z,16.90
2018-11-02T12:22:53.463Z,16.80
2018-11-02T12:25:20.995Z,16.30
2018-11-02T12:27:48.544Z,16.10
2018-11-02T12:30:16.984Z,15.90
2018-11-02T12:32:44.608Z,16.10
2018-11-02T12:37:40.722Z,15.90
2018-11-02T12:40:12.938Z,15.60
2018-11-02T12:47:37.651Z,15.40
2018-11-02T12:50:07.642Z,15.40
2018-11-02T12:52:35.228Z,15.50
2018-11-02T12:55:02.805Z,15.60
2018-11-02T12:57:30.440Z,15.60
2018-11-02T12:59:58.030Z,15.60
2018-11-02T13:02:25.552Z,15.70
2018-11-02T13:09:48.022Z,15.40
2018-11-02T13:14:43.017Z,15.60
2018-11-02T13:19:38.045Z,15.80
2018-11-02T13:22:05.681Z,15.90
2018-11-02T13:24:33.195Z,16.00
2018-11-02T13:27:00.863Z,15.90
2018-11-02T13:31:55.960Z,15.60
2018-11-02T13:34:23.512Z,15.50
2018-11-02T13:36:51.125Z,15.50
2018-11-02T13:44:13.418Z,15.60
2018-11-02T13:46:41.012Z,15.60
2018-11-02T13:51:36.604Z,15.40
2018-11-02T13:54:04.251Z,15.20
2018-11-02T13:58:59.272Z,14.90
2018-11-02T14:01:27.042Z,14.90
2018-11-02T14:03:54.499Z,14.80
2018-11-02T14:11:17.144Z,15.00
2018-11-02T14:18:39.705Z,14.80
2018-11-02T14:26:02.230Z,14.50
2018-11-02T14:28:29.837Z,14.60
2018-11-02T14:43:14.592Z,14.90
2018-11-02T15:22:45.014Z,14.40
2018-11-02T15:35:07.776Z,14.00
2018-11-02T15:42:31.833Z,14.30
2018-11-02T15:44:59.556Z,13.80
2018-11-02T15:47:27.044Z,14.60
2018-11-02T15:49:54.718Z,13.60
2018-11-02T15:59:44.671Z,13.90
2018-11-02T16:07:54.958Z,13.60
2018-11-02T16:10:22.495Z,13.60
2018-11-02T16:12:50.206Z,13.40
2018-11-02T16:15:17.807Z,13.30
2018-11-02T16:17:45.316Z,13.20
2018-11-02T16:20:14.131Z,13.10
2018-11-02T16:22:42.139Z,13.00
2018-11-02T16:25:09.809Z,13.00
2018-11-02T16:27:37.517Z,13.00
2018-11-02T16:30:05.347Z,13.00
2018-11-02T16:32:32.840Z,12.90
2018-11-02T16:35:00.507Z,12.90
2018-11-02T16:37:28.039Z,12.90
2018-11-02T16:39:55.728Z,12.70
2018-11-02T16:42:23.491Z,12.70
2018-11-02T16:44:51.200Z,12.70
2018-11-02T16:47:18.746Z,12.60
2018-11-02T16:49:46.340Z,12.60
2018-11-02T16:52:14.006Z,12.50
2018-11-02T16:54:41.806Z,12.50
2018-11-02T16:57:09.374Z,12.50
2018-11-02T16:59:37.109Z,12.50
2018-11-02T17:04:32.297Z,12.40
2018-11-02T17:07:00.167Z,12.40
2018-11-02T17:09:28.327Z,12.40
2018-11-02T17:11:56.068Z,12.40
2018-11-02T17:14:23.886Z,12.40
2018-11-02T17:16:51.571Z,12.40
2018-11-02T17:19:19.156Z,12.30
2018-11-02T17:21:47.453Z,12.30
2018-11-02T17:24:15.077Z,12.20
2018-11-02T17:26:42.676Z,12.20
2018-11-02T17:29:10.314Z,12.20
2018-11-02T17:31:38.483Z,12.10
2018-11-02T17:34:06.450Z,12.10
2018-11-02T17:36:34.138Z,12.10
2018-11-02T17:39:01.734Z,12.10
2018-11-02T17:41:29.484Z,12.10
2018-11-02T17:43:58.114Z,12.10
2018-11-02T17:48:53.597Z,12.00
2018-11-02T17:56:17.343Z,12.00
2018-11-02T17:58:45.125Z,12.10
2018-11-02T18:03:41.643Z,12.00
2018-11-02T18:06:09.390Z,12.00
2018-11-02T18:11:05.005Z,12.00
2018-11-02T18:13:32.781Z,12.00
2018-11-02T18:16:00.441Z,12.00
2018-11-02T18:18:28.159Z,12.00
2018-11-02T18:20:56.131Z,12.10
2018-11-02T18:23:23.791Z,12.00
2018-11-02T18:25:51.524Z,11.90
2018-11-02T18:28:19.263Z,11.90
2018-11-02T18:30:47.578Z,11.90
2018-11-02T18:33:15.264Z,12.20
2018-11-02T18:35:42.974Z,11.90
2018-11-02T18:38:10.731Z,11.90
2018-11-02T18:40:38.340Z,11.90
2018-11-02T18:43:06.521Z,11.90
2018-11-02T18:45:34.222Z,11.90
2018-11-02T18:48:02.154Z,11.90
2018-11-02T18:50:31.047Z,11.90
2018-11-02T18:53:00.217Z,11.90
2018-11-02T18:55:31.033Z,11.90
2018-11-02T18:57:59.003Z,11.90
2018-11-02T19:00:28.141Z,11.90
2018-11-02T19:02:55.757Z,11.80
2018-11-02T19:05:39.891Z,11.80
2018-11-02T19:08:09.151Z,11.80
2018-11-02T19:13:06.759Z,11.70
2018-11-02T19:15:40.621Z,11.60
2018-11-02T19:18:08.761Z,11.70
2018-11-02T19:20:36.980Z,11.70
2018-11-02T19:23:04.660Z,11.70
2018-11-02T19:25:32.364Z,11.60
2018-11-02T19:28:00.245Z,11.90
2018-11-02T19:30:27.933Z,11.50
2018-11-02T19:32:55.661Z,11.50
2018-11-02T19:35:23.612Z,11.50
2018-11-02T19:37:51.111Z,11.50
2018-11-02T19:40:18.834Z,11.40
2018-11-02T19:42:46.616Z,11.30
2018-11-02T19:45:14.294Z,11.30
2018-11-02T19:47:50.886Z,11.30
2018-11-02T19:50:19.527Z,11.30
2018-11-02T19:52:47.276Z,11.30
2018-11-02T19:55:15.045Z,11.30
2018-11-02T19:57:43.671Z,11.30
2018-11-02T20:00:13.884Z,11.30
2018-11-02T20:02:41.849Z,11.30
2018-11-02T20:05:11.826Z,11.20
2018-11-02T20:07:40.828Z,11.20
2018-11-02T20:10:10.165Z,11.20
2018-11-02T20:12:37.710Z,11.20
2018-11-02T20:15:07.225Z,11.20
2018-11-02T20:17:36.032Z,11.40
2018-11-02T20:20:04.419Z,11.20
2018-11-02T20:22:32.733Z,11.20
2018-11-02T20:25:00.417Z,11.10
2018-11-02T20:27:29.000Z,11.10
2018-11-02T20:29:58.285Z,11.10
2018-11-02T20:32:26.034Z,11.10
2018-11-02T20:34:54.258Z,11.10
2018-11-02T20:37:21.904Z,11.10
2018-11-02T20:39:50.220Z,10.90
2018-11-02T20:42:17.756Z,10.90
2018-11-02T20:44:45.424Z,11.00
2018-11-02T20:47:13.660Z,11.10
2018-11-02T20:52:08.956Z,11.30
2018-11-02T20:54:36.535Z,11.10
2018-11-02T20:57:04.258Z,11.20
2018-11-02T20:59:31.872Z,11.10
2018-11-02T21:01:59.612Z,11.10
2018-11-02T21:04:27.196Z,11.30
2018-11-02T21:06:54.835Z,11.20
2018-11-02T21:09:22.757Z,11.30
2018-11-02T21:11:50.419Z,11.20
2018-11-02T21:16:45.501Z,11.20
2018-11-02T21:21:42.172Z,11.20
2018-11-02T21:24:10.392Z,11.40
2018-11-02T21:29:05.688Z,11.20
2018-11-02T21:31:33.204Z,11.20
2018-11-02T21:34:01.235Z,11.20
2018-11-02T21:36:30.197Z,11.40
2018-11-02T21:38:58.529Z,11.20
2018-11-02T21:41:26.939Z,11.10
2018-11-02T21:43:54.606Z,11.10
2018-11-02T21:46:22.418Z,11.20
2018-11-02T21:48:50.037Z,11.10
2018-11-02T21:51:17.652Z,11.10
2018-11-02T21:53:45.251Z,11.10
2018-11-02T21:56:13.141Z,11.10
2018-11-02T21:58:40.865Z,11.10
2018-11-02T22:01:09.035Z,11.10
2018-11-02T22:03:36.608Z,11.10
2018-11-02T22:06:05.113Z,11.10
2018-11-02T22:08:32.684Z,11.10
2018-11-02T22:15:56.516Z,11.20
2018-11-02T22:18:29.756Z,11.20
2018-11-02T22:20:58.306Z,11.10
2018-11-02T22:23:26.209Z,11.10
2018-11-02T22:25:54.141Z,11.10
2018-11-02T22:28:21.972Z,11.10
2018-11-02T22:30:50.102Z,11.10
2018-11-02T22:33:19.585Z,11.10
2018-11-02T22:35:47.313Z,11.10
2018-11-02T22:38:14.997Z,11.10
2018-11-02T22:43:10.073Z,11.00
2018-11-02T22:45:38.332Z,11.00
2018-11-02T23:01:16.707Z,11.00
2018-11-02T23:03:44.467Z,10.90
2018-11-02T23:06:12.140Z,11.00
2018-11-02T23:08:41.948Z,11.00
2018-11-02T23:11:09.571Z,11.20
2018-11-02T23:13:37.813Z,10.80
2018-11-02T23:18:33.013Z,11.10
2018-11-02T23:21:00.623Z,11.00
2018-11-02T23:23:28.216Z,11.20
2018-11-02T23:25:56.339Z,11.20
2018-11-02T23:35:47.645Z,11.30
2018-11-02T23:38:15.318Z,11.10
2018-11-02T23:40:42.909Z,11.00
2018-11-02T23:43:10.477Z,10.90
2018-11-02T23:48:11.536Z,11.40
2018-11-02T23:50:39.643Z,11.10
2018-11-02T23:55:34.856Z,11.40
2018-11-02T23:58:02.510Z,10.90
